Time;durP1;ratioP1;P1;durP2;ratioP2;P2;SDS_P1;SDS_P2;PMS_P1;PMS_P2;Temp;Humidity;BMP_temperature;BMP_pressure;BME280_temperature;BME280_humidity;BME280_pressure;Samples;Min_cycle;Max_cycle;Signal;HPM_P1;HPM_P2
2022/03/07 00:01:06;;;;;;;8.60;7.47;;;;;;;1.30;nan;98616.94;5056197;28;20212;-73
2022/03/07 00:03:34;;;;;;;9.20;7.40;;;;;;;1.27;nan;98612.03;5056412;28;20227;-73
2022/03/07 00:06:00;;;;;;;10.60;7.70;;;;;;;1.24;nan;98622.78;5056439;28;20189;-71
2022/03/07 00:08:27;;;;;;;7.97;7.17;;;;;;;1.27;nan;98616.44;5056062;28;20466;-71
2022/03/07 00:10:53;;;;;;;7.77;6.97;;;;;;;1.29;nan;98619.72;5056410;28;20204;-73
2022/03/07 00:13:21;;;;;;;9.20;7.67;;;;;;;1.14;nan;98621.19;5056697;28;20307;-71
2022/03/07 00:15:47;;;;;;;8.47;7.00;;;;;;;1.20;nan;98624.03;5056322;28;20212;-73
2022/03/07 00:18:13;;;;;;;7.73;6.50;;;;;;;1.26;nan;98626.06;5056195;28;20219;-72
2022/03/07 00:20:40;;;;;;;9.37;7.27;;;;;;;1.22;nan;98629.16;5056075;28;20581;-72
2022/03/07 00:23:07;;;;;;;8.30;6.77;;;;;;;1.23;nan;98625.53;5056022;28;20600;-71
2022/03/07 00:25:33;;;;;;;6.23;5.63;;;;;;;1.24;nan;98624.56;5056227;28;20189;-71
2022/03/07 00:27:59;;;;;;;7.90;7.10;;;;;;;1.13;nan;98622.97;5056034;28;20196;-72
2022/03/07 00:30:26;;;;;;;6.60;5.97;;;;;;;1.10;nan;98627.69;5055869;28;20604;-72
2022/03/07 00:32:52;;;;;;;7.30;6.43;;;;;;;1.09;nan;98621.66;5055780;28;20466;-72
2022/03/07 00:35:18;;;;;;;8.10;6.90;;;;;;;1.00;nan;98626.91;5056119;28;20422;-73
2022/03/07 00:37:45;;;;;;;7.93;6.43;;;;;;;1.10;nan;98630.31;5055994;28;20419;-73
2022/03/07 00:40:11;;;;;;;6.57;5.83;;;;;;;1.02;nan;98630.19;5056106;28;20441;-71
2022/03/07 00:42:38;;;;;;;7.67;6.17;;;;;;;1.02;nan;98628.41;5056264;28;20433;-71
2022/03/07 00:45:07;;;;;;;8.07;6.70;;;;;;;0.91;nan;98631.25;5057635;28;20469;-71
2022/03/07 00:47:34;;;;;;;7.93;6.40;;;;;;;1.01;nan;98626.78;5059610;28;20207;-71
2022/03/07 00:50:01;;;;;;;7.13;6.23;;;;;;;1.04;nan;98626.47;5059888;28;20221;-71
2022/03/07 00:52:28;;;;;;;6.57;5.90;;;;;;;0.93;nan;98633.69;5059853;28;20265;-71
2022/03/07 00:54:54;;;;;;;8.17;6.50;;;;;;;0.95;nan;98626.53;5059862;28;20189;-71
2022/03/07 00:57:20;;;;;;;8.13;6.03;;;;;;;0.95;nan;98632.56;5059796;28;20209;-71
2022/03/07 00:59:47;;;;;;;8.00;6.10;;;;;;;0.90;nan;98631.38;5059455;28;20221;-71
2022/03/07 01:02:13;;;;;;;7.73;6.23;;;;;;;0.89;nan;98635.78;5058976;28;20504;-71
2022/03/07 01:04:39;;;;;;;7.10;5.80;;;;;;;0.91;nan;98630.41;5059336;28;20423;-71
2022/03/07 01:07:08;;;;;;;6.83;6.13;;;;;;;0.86;nan;98632.63;5059553;28;20581;-72
2022/03/07 01:09:34;;;;;;;8.80;6.13;;;;;;;0.82;nan;98631.25;5059418;28;20454;-71
2022/03/07 01:12:00;;;;;;;8.17;6.43;;;;;;;0.80;nan;98633.22;5059258;28;20212;-72
2022/03/07 01:14:27;;;;;;;6.87;6.20;;;;;;;0.75;nan;98640.66;5059610;28;20218;-73
2022/03/07 01:16:53;;;;;;;7.43;5.87;;;;;;;0.71;nan;98644.53;5059668;28;20201;-73
2022/03/07 01:19:20;;;;;;;6.50;5.80;;;;;;;0.89;nan;98634.97;5059058;28;20221;-73
2022/03/07 01:21:47;;;;;;;6.77;5.73;;;;;;;0.84;nan;98630.16;5058885;28;20525;-73
2022/03/07 01:24:13;;;;;;;6.83;6.10;;;;;;;0.74;nan;98628.53;5059162;28;20288;-72
2022/03/07 01:26:39;;;;;;;6.17;5.57;;;;;;;0.79;nan;98632.38;5059205;28;20434;-72
2022/03/07 01:29:07;;;;;;;7.53;6.30;;;;;;;0.80;nan;98627.97;5059131;28;20237;-72
2022/03/07 01:31:33;;;;;;;6.83;6.00;;;;;;;0.66;nan;98625.81;5059124;28;20434;-71
2022/03/07 01:33:59;;;;;;;6.63;5.67;;;;;;;0.65;nan;98616.31;5058615;28;20613;-72
2022/03/07 01:36:26;;;;;;;6.43;5.80;;;;;;;0.63;nan;98621.69;5058530;28;20884;-72
2022/03/07 01:38:52;;;;;;;7.53;6.03;;;;;;;0.49;nan;98619.53;5058617;28;20917;-71
2022/03/07 01:41:18;;;;;;;6.40;5.73;;;;;;;0.59;nan;98614.28;5059008;28;20729;-73
2022/03/07 01:43:45;;;;;;;6.20;5.60;;;;;;;0.59;nan;98625.59;5058727;28;20434;-70
2022/03/07 01:46:11;;;;;;;7.27;5.40;;;;;;;0.51;nan;98624.63;5058843;28;20430;-71
2022/03/07 01:48:38;;;;;;;6.07;5.37;;;;;;;0.50;nan;98618.59;5058789;28;20751;-71
2022/03/07 01:51:07;;;;;;;6.83;5.57;;;;;;;0.43;nan;98619.28;5058175;28;20442;-71
2022/03/07 01:53:33;;;;;;;6.70;6.00;;;;;;;0.32;nan;98609.00;5058317;28;20469;-72
2022/03/07 01:56:00;;;;;;;6.43;5.57;;;;;;;0.22;nan;98604.59;5058388;28;20428;-72
2022/03/07 01:58:26;;;;;;;6.73;6.10;;;;;;;0.26;nan;98609.56;5058546;28;20450;-73
2022/03/07 02:00:52;;;;;;;6.67;5.73;;;;;;;0.18;nan;98603.25;5057696;28;20478;-71
2022/03/07 02:03:19;;;;;;;7.03;5.77;;;;;;;0.13;nan;98609.03;5058037;28;20430;-73
2022/03/07 02:05:47;;;;;;;7.17;5.67;;;;;;;0.24;nan;98604.47;5058488;28;20470;-72
2022/03/07 02:08:13;;;;;;;6.00;5.40;;;;;;;0.09;nan;98596.25;5058165;28;20925;-73
2022/03/07 02:10:40;;;;;;;6.33;5.73;;;;;;;-0.01;nan;98598.06;5058077;28;20441;-71
2022/03/07 02:13:18;;;;;;;6.90;5.87;;;;;;;0.08;nan;98602.44;5058312;28;20470;-71
2022/03/07 02:15:44;;;;;;;7.43;5.63;;;;;;;0.05;nan;98594.88;5058357;28;20446;-71
2022/03/07 02:18:10;;;;;;;6.80;5.60;;;;;;;0.04;nan;98603.69;5058245;28;20461;-72
2022/03/07 02:20:38;;;;;;;6.97;5.33;;;;;;;-0.09;nan;98595.31;5057936;28;20438;-71
2022/03/07 02:23:04;;;;;;;7.17;5.67;;;;;;;-0.13;nan;98599.16;5058249;28;20439;-71
2022/03/07 02:25:30;;;;;;;6.50;5.80;;;;;;;-0.28;nan;98595.31;5058182;28;20435;-72
2022/03/07 02:27:57;;;;;;;6.30;5.70;;;;;;;-0.33;nan;98596.69;5058254;28;20445;-71
2022/03/07 02:30:23;;;;;;;8.90;5.83;;;;;;;-0.38;nan;98586.69;5057791;28;20430;-72
2022/03/07 02:32:51;;;;;;;6.90;5.80;;;;;;;-0.43;nan;98588.03;5057971;28;20422;-71
2022/03/07 02:35:17;;;;;;;8.13;6.67;;;;;;;-0.46;nan;98594.38;5058214;28;20422;-71
2022/03/07 02:37:43;;;;;;;6.40;5.43;;;;;;;-0.52;nan;98597.53;5058139;28;20434;-71
2022/03/07 02:40:12;;;;;;;7.53;6.10;;;;;;;-0.59;nan;98591.19;5057663;28;20440;-71
2022/03/07 02:42:39;;;;;;;7.13;6.37;;;;;;;-0.64;nan;98589.94;5057535;28;20512;-71
2022/03/07 02:45:06;;;;;;;7.50;6.20;;;;;;;-0.75;nan;98584.88;5057740;28;20424;-71
2022/03/07 02:47:33;;;;;;;8.50;6.67;;;;;;;-0.71;nan;98584.44;5057701;28;20414;-71
2022/03/07 02:49:59;;;;;;;9.03;6.30;;;;;;;-0.72;nan;98585.41;5057366;28;20454;-71
2022/03/07 02:52:26;;;;;;;6.93;6.23;;;;;;;-0.71;nan;98587.06;5057329;28;20953;-72
2022/03/07 02:54:52;;;;;;;7.30;6.50;;;;;;;-0.76;nan;98591.06;5057465;28;20462;-71
2022/03/07 02:57:18;;;;;;;7.43;6.53;;;;;;;-0.86;nan;98590.22;5057198;28;20508;-72
2022/03/07 02:59:45;;;;;;;7.60;6.80;;;;;;;-0.77;nan;98589.41;5057160;28;20458;-72
2022/03/07 03:02:12;;;;;;;6.67;6.00;;;;;;;-0.77;nan;98590.22;5057022;28;20873;-71
2022/03/07 03:04:40;;;;;;;6.33;5.73;;;;;;;-0.80;nan;98590.47;5057250;28;20445;-72
2022/03/07 03:07:06;;;;;;;7.60;6.80;;;;;;;-0.86;nan;98593.63;5056597;28;20488;-71
2022/03/07 03:09:33;;;;;;;10.27;6.90;;;;;;;-0.81;nan;98595.84;5057150;28;20450;-73
2022/03/07 03:11:59;;;;;;;8.13;7.23;;;;;;;-0.78;nan;98595.56;5056983;28;20433;-73
2022/03/07 03:14:25;;;;;;;7.53;6.73;;;;;;;-0.82;nan;98595.03;5057092;28;20484;-73
2022/03/07 03:16:52;;;;;;;7.57;6.77;;;;;;;-0.88;nan;98589.50;5057154;28;20739;-73
2022/03/07 03:19:20;;;;;;;8.90;6.77;;;;;;;-0.80;nan;98592.28;5057343;28;20454;-73
2022/03/07 03:21:46;;;;;;;8.53;6.80;;;;;;;-0.76;nan;98593.66;5056500;28;20937;-73
2022/03/07 03:24:13;;;;;;;7.80;6.87;;;;;;;-0.86;nan;98591.03;5056995;28;20449;-73
2022/03/07 03:26:39;;;;;;;8.23;6.67;;;;;;;-0.97;nan;98601.59;5056703;28;20422;-73
2022/03/07 03:29:05;;;;;;;7.97;7.17;;;;;;;-1.03;nan;98599.50;5056553;28;20733;-73
2022/03/07 03:31:32;;;;;;;9.23;7.07;;;;;;;-1.01;nan;98597.59;5056345;28;20430;-73
2022/03/07 03:33:58;;;;;;;7.97;7.17;;;;;;;-1.04;nan;98603.06;5056702;28;20474;-73
2022/03/07 03:36:24;;;;;;;7.77;6.97;;;;;;;-0.99;nan;98600.88;5056458;28;20735;-73
2022/03/07 03:38:51;;;;;;;7.83;6.93;;;;;;;-1.01;nan;98613.25;5056369;28;20446;-73
2022/03/07 03:41:17;;;;;;;8.27;7.00;;;;;;;-1.05;nan;98604.03;5056409;28;20442;-73
2022/03/07 03:43:44;;;;;;;8.43;7.53;;;;;;;-1.09;nan;98607.03;5056548;28;20429;-73
2022/03/07 03:46:10;;;;;;;8.73;7.93;;;;;;;-1.05;nan;98606.66;5056181;28;20434;-73
2022/03/07 03:48:36;;;;;;;7.67;6.87;;;;;;;-0.96;nan;98605.84;5056491;28;20481;-73
2022/03/07 03:51:03;;;;;;;8.40;7.47;;;;;;;-0.94;nan;98603.91;5056210;28;20730;-73
2022/03/07 03:53:29;;;;;;;8.47;7.50;;;;;;;-0.87;nan;98607.66;5056075;28;20921;-73
2022/03/07 03:55:55;;;;;;;8.93;8.03;;;;;;;-0.99;nan;98600.06;5056395;28;20441;-73
2022/03/07 03:58:22;;;;;;;8.63;7.73;;;;;;;-1.12;nan;98604.72;5056535;28;20466;-73
2022/03/07 04:00:48;;;;;;;9.23;7.77;;;;;;;-0.98;nan;98606.94;5055543;28;20454;-73
2022/03/07 04:03:14;;;;;;;9.67;8.23;;;;;;;-0.96;nan;98611.06;5055456;28;20457;-73
2022/03/07 04:05:41;;;;;;;8.80;7.90;;;;;;;-1.02;nan;98616.81;5056406;28;20434;-73
2022/03/07 04:08:07;;;;;;;8.23;7.37;;;;;;;-1.06;nan;98605.00;5056460;28;20457;-73
2022/03/07 04:10:33;;;;;;;9.00;8.00;;;;;;;-1.00;nan;98609.69;5055683;28;20916;-73
2022/03/07 04:13:00;;;;;;;9.13;8.07;;;;;;;-1.04;nan;98608.28;5056135;28;20896;-73
2022/03/07 04:15:27;;;;;;;8.93;7.93;;;;;;;-1.10;nan;98597.56;5056791;28;20470;-73
2022/03/07 04:17:54;;;;;;;9.47;8.27;;;;;;;-1.14;nan;98599.63;5055845;28;20863;-73
2022/03/07 04:20:20;;;;;;;9.40;8.43;;;;;;;-1.08;nan;98603.50;5060890;28;20683;-73
2022/03/07 04:22:47;;;;;;;10.53;8.70;;;;;;;-1.05;nan;98603.19;5060365;28;20426;-73
2022/03/07 04:25:14;;;;;;;9.30;8.10;;;;;;;-1.08;nan;98596.47;5060159;28;20430;-73
2022/03/07 04:27:40;;;;;;;9.37;7.53;;;;;;;-0.98;nan;98606.94;5060223;28;20430;-73
2022/03/07 04:30:09;;;;;;;9.17;8.27;;;;;;;-1.00;nan;98601.00;5059556;28;20456;-73
2022/03/07 04:32:37;;;;;;;9.40;8.20;;;;;;;-0.97;nan;98608.59;5040101;28;20419;-72
2022/03/07 04:35:05;;;;;;;9.27;8.33;;;;;;;-0.97;nan;98608.59;5039849;28;20502;-73
2022/03/07 04:37:32;;;;;;;11.80;8.93;;;;;;;-0.95;nan;98604.06;5040047;28;20473;-73
2022/03/07 04:40:00;;;;;;;11.93;9.17;;;;;;;-1.12;nan;98607.31;5040007;28;20463;-73
2022/03/07 04:42:26;;;;;;;12.80;9.27;;;;;;;-1.04;nan;98618.72;5058479;28;20445;-73
2022/03/07 04:44:53;;;;;;;11.03;9.10;;;;;;;-1.03;nan;98620.38;5059508;28;20480;-73
2022/03/07 04:47:19;;;;;;;11.27;8.90;;;;;;;-0.92;nan;98622.06;5059793;28;20464;-73
2022/03/07 04:49:45;;;;;;;10.17;8.47;;;;;;;-1.00;nan;98621.88;5059340;28;20465;-73
2022/03/07 04:52:12;;;;;;;10.90;9.37;;;;;;;-0.93;nan;98634.28;5059402;28;20861;-73
2022/03/07 04:54:38;;;;;;;9.00;8.10;;;;;;;-0.86;nan;98630.19;5059200;28;20940;-73
2022/03/07 04:57:06;;;;;;;12.60;8.70;;;;;;;-0.89;nan;98629.63;5059098;28;20422;-73
2022/03/07 04:59:32;;;;;;;9.43;8.03;;;;;;;-0.90;nan;98631.41;5059491;28;20454;-73
2022/03/07 05:01:58;;;;;;;11.27;8.33;;;;;;;-0.86;nan;98634.59;5059282;28;20464;-73
2022/03/07 05:04:25;;;;;;;9.63;8.63;;;;;;;-0.82;nan;98635.94;5059706;28;20419;-73
2022/03/07 05:06:51;;;;;;;9.60;8.60;;;;;;;-0.91;nan;98637.59;5059384;28;20440;-73
2022/03/07 05:09:17;;;;;;;12.53;9.47;;;;;;;-1.06;nan;98635.47;5059156;28;20468;-73
2022/03/07 05:11:44;;;;;;;10.70;9.13;;;;;;;-1.10;nan;98634.09;5059475;28;20801;-73
2022/03/07 05:14:10;;;;;;;8.97;8.07;;;;;;;-1.06;nan;98635.47;5059204;28;20488;-73
2022/03/07 05:16:36;;;;;;;10.57;9.10;;;;;;;-1.13;nan;98635.19;5058933;28;20866;-73
2022/03/07 05:19:03;;;;;;;11.67;9.03;;;;;;;-1.13;nan;98635.19;5058661;28;20601;-73
2022/03/07 05:21:30;;;;;;;11.17;9.23;;;;;;;-1.19;nan;98630.50;5058918;28;20422;-73
2022/03/07 05:23:56;;;;;;;9.63;8.63;;;;;;;-1.15;nan;98633.66;5058741;28;20418;-73
2022/03/07 05:26:22;;;;;;;10.30;8.93;;;;;;;-1.07;nan;98637.25;5058743;28;20422;-73
2022/03/07 05:28:49;;;;;;;11.30;8.50;;;;;;;-1.06;nan;98638.91;5058453;28;20484;-73
2022/03/07 05:31:15;;;;;;;10.03;8.70;;;;;;;-1.12;nan;98642.03;5057848;28;20850;-73
2022/03/07 05:33:42;;;;;;;12.27;8.87;;;;;;;-1.13;nan;98645.63;5058231;28;20834;-73
2022/03/07 05:36:08;;;;;;;11.27;9.00;;;;;;;-1.08;nan;98648.66;5058467;28;20437;-73
2022/03/07 05:38:35;;;;;;;10.57;8.20;;;;;;;-1.12;nan;98649.88;5057709;28;20469;-73
2022/03/07 05:41:01;;;;;;;11.13;8.70;;;;;;;-1.12;nan;98655.09;5058045;28;20426;-73
2022/03/07 05:43:27;;;;;;;10.93;8.97;;;;;;;-1.07;nan;98655.50;5058032;28;20427;-73
2022/03/07 05:45:54;;;;;;;11.77;9.00;;;;;;;-1.00;nan;98659.25;5058192;28;20422;-73
2022/03/07 05:48:20;;;;;;;10.30;9.20;;;;;;;-1.15;nan;98651.91;5057382;28;20466;-73
2022/03/07 05:50:46;;;;;;;11.13;9.13;;;;;;;-1.21;nan;98655.88;5058736;28;20430;-71
2022/03/07 05:53:13;;;;;;;10.90;8.97;;;;;;;-1.24;nan;98655.31;5057981;28;20415;-71
2022/03/07 05:55:41;;;;;;;9.73;8.57;;;;;;;-1.24;nan;98650.94;5057961;28;20463;-71
2022/03/07 05:58:07;;;;;;;11.27;8.47;;;;;;;-1.17;nan;98654.66;5057569;28;20514;-71
2022/03/07 06:00:35;;;;;;;11.20;8.47;;;;;;;-1.21;nan;98648.03;5057708;28;20446;-71
2022/03/07 06:03:01;;;;;;;11.63;8.43;;;;;;;-1.26;nan;98645.00;5057382;28;20430;-71
2022/03/07 06:05:28;;;;;;;13.37;8.93;;;;;;;-1.28;nan;98657.38;5057781;28;20419;-71
2022/03/07 06:07:54;;;;;;;11.37;7.43;;;;;;;-1.19;nan;98659.19;5057588;28;20526;-71
2022/03/07 06:10:21;;;;;;;10.17;7.57;;;;;;;-1.04;nan;98662.28;5057527;28;20435;-71
2022/03/07 06:12:47;;;;;;;10.67;8.70;;;;;;;-1.26;nan;98668.47;5056978;28;20733;-71
2022/03/07 06:15:14;;;;;;;9.53;8.30;;;;;;;-1.20;nan;98665.38;5057144;28;20508;-71
2022/03/07 06:17:50;;;;;;;11.90;8.50;;;;;;;-1.15;nan;98654.53;5056412;28;20437;-71
2022/03/07 06:20:17;;;;;;;8.57;7.67;;;;;;;-1.13;nan;98663.88;5056935;28;20788;-71
2022/03/07 06:22:44;;;;;;;9.47;7.90;;;;;;;-1.16;nan;98653.72;5056249;28;20446;-71
2022/03/07 06:25:10;;;;;;;9.00;7.70;;;;;;;-1.03;nan;98653.50;5056581;28;20426;-71
2022/03/07 06:27:36;;;;;;;9.03;7.50;;;;;;;-0.95;nan;98658.88;5056490;28;20695;-71
2022/03/07 06:30:04;;;;;;;12.23;7.97;;;;;;;-1.06;nan;98657.19;5056897;28;20747;-71
2022/03/07 06:32:30;;;;;;;9.77;7.70;;;;;;;-1.04;nan;98659.66;5056508;28;20445;-71
2022/03/07 06:34:57;;;;;;;8.03;7.00;;;;;;;-1.00;nan;98655.81;5056265;28;20478;-71
2022/03/07 06:37:24;;;;;;;9.63;7.97;;;;;;;-1.06;nan;98657.19;5056636;28;20425;-69
2022/03/07 06:39:50;;;;;;;9.10;8.13;;;;;;;-1.17;nan;98652.06;5055825;28;20992;-73
2022/03/07 06:42:16;;;;;;;8.57;7.53;;;;;;;-1.21;nan;98650.66;5055913;28;20432;-72
2022/03/07 06:44:43;;;;;;;9.37;7.40;;;;;;;-1.11;nan;98654.16;5056699;28;20601;-72
2022/03/07 06:47:09;;;;;;;11.33;7.33;;;;;;;-1.09;nan;98654.00;5056868;28;20711;-72
2022/03/07 06:49:36;;;;;;;9.13;7.67;;;;;;;-0.84;nan;98670.03;5056557;28;20458;-72
2022/03/07 06:52:04;;;;;;;8.60;7.70;;;;;;;-0.81;nan;98666.34;5056582;28;20446;-72
2022/03/07 06:54:30;;;;;;;9.97;7.50;;;;;;;-0.74;nan;98663.06;5055818;28;20470;-72
2022/03/07 06:56:56;;;;;;;10.23;7.07;;;;;;;-0.92;nan;98664.66;5056606;28;20425;-72
2022/03/07 06:59:23;;;;;;;7.37;6.50;;;;;;;-0.87;nan;98659.84;5055938;28;21043;-70
2022/03/07 07:01:49;;;;;;;9.33;7.03;;;;;;;-0.82;nan;98667.28;5055894;28;20874;-72
2022/03/07 07:04:16;;;;;;;7.87;6.97;;;;;;;-0.91;nan;98666.28;5057379;28;20422;-71
2022/03/07 07:06:42;;;;;;;10.97;7.80;;;;;;;-0.92;nan;98671.63;5056462;28;20427;-70
2022/03/07 07:09:08;;;;;;;8.60;6.80;;;;;;;-0.84;nan;98677.03;5055747;28;20454;-72
2022/03/07 07:11:35;;;;;;;10.47;7.37;;;;;;;-0.68;nan;98677.34;5056281;28;20418;-71
2022/03/07 07:14:02;;;;;;;9.73;6.93;;;;;;;-0.63;nan;98686.41;5056130;28;20516;-72
2022/03/07 07:16:28;;;;;;;10.10;6.57;;;;;;;-0.68;nan;98688.59;5056042;28;20430;-72
2022/03/07 07:18:54;;;;;;;7.77;6.67;;;;;;;-0.62;nan;98690.69;5056016;28;20451;-69
2022/03/07 07:21:21;;;;;;;9.53;7.43;;;;;;;-0.56;nan;98694.56;5056409;28;20426;-70
2022/03/07 07:23:47;;;;;;;10.70;7.20;;;;;;;-0.52;nan;98699.38;5056466;28;20423;-70
2022/03/07 07:26:14;;;;;;;8.60;6.47;;;;;;;-0.58;nan;98702.50;5055881;28;20467;-70
2022/03/07 07:28:40;;;;;;;6.73;6.03;;;;;;;-0.37;nan;98702.41;5055736;28;20450;-69
2022/03/07 07:31:07;;;;;;;8.20;6.40;;;;;;;-0.33;nan;98715.09;5055855;28;20431;-71
2022/03/07 07:33:33;;;;;;;8.03;6.37;;;;;;;-0.34;nan;98702.16;5055702;28;20437;-70
2022/03/07 07:35:59;;;;;;;7.57;6.67;;;;;;;-0.30;nan;98706.97;5055648;28;20727;-69
2022/03/07 07:38:26;;;;;;;7.70;6.27;;;;;;;-0.32;nan;98701.06;5055814;28;20541;-72
2022/03/07 07:40:55;;;;;;;9.77;6.27;;;;;;;-0.31;nan;98709.72;5055805;28;20440;-73
2022/03/07 07:43:21;;;;;;;8.50;6.10;;;;;;;-0.40;nan;98703.50;5055955;28;20438;-69
2022/03/07 07:45:48;;;;;;;7.27;6.57;;;;;;;-0.43;nan;98709.03;5055401;28;20430;-72
2022/03/07 07:48:14;;;;;;;9.53;7.23;;;;;;;-0.34;nan;98704.75;5055424;28;20454;-72
2022/03/07 07:50:40;;;;;;;7.87;6.80;;;;;;;-0.25;nan;98712.63;5051781;28;20444;-69
2022/03/07 07:53:07;;;;;;;11.73;6.70;;;;;;;-0.16;nan;98717.03;5055427;28;20437;-72
2022/03/07 07:55:34;;;;;;;7.07;6.33;;;;;;;-0.04;nan;98707.28;5055462;28;20457;-71
2022/03/07 07:58:00;;;;;;;8.53;7.10;;;;;;;-0.08;nan;98719.78;5055051;28;20442;-72
2022/03/07 08:00:27;;;;;;;10.60;6.90;;;;;;;0.01;nan;98715.53;5055366;28;20450;-73
2022/03/07 08:02:54;;;;;;;9.03;7.30;;;;;;;0.12;nan;98717.19;5055613;28;20507;-73
2022/03/07 08:05:20;;;;;;;10.73;6.93;;;;;;;0.31;nan;98717.19;5056714;28;20425;-70
2022/03/07 08:07:47;;;;;;;7.87;6.33;;;;;;;0.31;nan;98723.22;5055443;28;20438;-73
2022/03/07 08:10:16;;;;;;;8.67;7.03;;;;;;;0.24;nan;98728.16;5055504;28;20442;-73
2022/03/07 08:12:42;;;;;;;9.87;7.33;;;;;;;0.30;nan;98732.03;5055604;28;20438;-71
2022/03/07 08:15:11;;;;;;;8.07;6.90;;;;;;;0.32;nan;98733.53;5055596;28;20454;-70
2022/03/07 08:17:49;;;;;;;8.20;6.80;;;;;;;0.31;nan;98735.47;5055684;28;20441;-72
2022/03/07 08:20:27;;;;;;;8.97;7.20;;;;;;;0.45;nan;98735.06;5055694;28;20426;-72
2022/03/07 08:22:54;;;;;;;8.53;7.20;;;;;;;0.68;nan;98736.41;5055894;28;20426;-71
2022/03/07 08:25:23;;;;;;;9.43;7.63;;;;;;;0.75;nan;98734.84;5055702;28;20435;-72
2022/03/07 08:27:50;;;;;;;7.60;6.80;;;;;;;0.84;nan;98728.78;5055670;28;20426;-72
2022/03/07 08:30:19;;;;;;;9.70;7.90;;;;;;;0.75;nan;98729.63;5055436;28;20854;-69
2022/03/07 08:32:45;;;;;;;9.17;7.70;;;;;;;0.75;nan;98727.00;5055627;28;20422;-69
2022/03/07 08:35:13;;;;;;;12.97;8.37;;;;;;;0.68;nan;98725.94;5055653;28;20817;-69
2022/03/07 08:37:40;;;;;;;10.03;8.27;;;;;;;0.84;nan;98734.84;5055710;28;20730;-70
2022/03/07 08:40:08;;;;;;;13.33;8.13;;;;;;;1.00;nan;98736.88;5055544;28;20456;-71
2022/03/07 08:42:35;;;;;;;9.93;7.57;;;;;;;1.18;nan;98737.78;5055180;28;20686;-71
2022/03/07 08:45:02;;;;;;;9.33;7.60;;;;;;;1.16;nan;98739.69;5055776;28;20426;-70
2022/03/07 08:47:29;;;;;;;7.93;7.13;;;;;;;1.00;nan;98740.31;5055430;28;20885;-70
2022/03/07 08:49:56;;;;;;;9.43;7.73;;;;;;;1.11;nan;98748.00;5055510;28;20454;-71
2022/03/07 08:52:22;;;;;;;7.87;7.07;;;;;;;1.20;nan;98748.91;5055859;28;20240;-72
2022/03/07 08:54:49;;;;;;;10.90;8.20;;;;;;;1.12;nan;98748.81;5055580;28;20217;-72
2022/03/07 08:57:16;;;;;;;12.73;8.30;;;;;;;1.20;nan;98743.66;5055207;28;20438;-73
2022/03/07 08:59:42;;;;;;;13.37;8.60;;;;;;;1.26;nan;98745.75;5055026;28;20756;-73
2022/03/07 09:02:10;;;;;;;9.07;7.80;;;;;;;1.32;nan;98745.16;5055084;28;20224;-72
2022/03/07 09:04:37;;;;;;;9.40;7.80;;;;;;;1.46;nan;98745.50;5055429;28;20646;-72
2022/03/07 09:07:04;;;;;;;9.67;8.17;;;;;;;1.58;nan;98743.53;5058653;28;20613;-71
2022/03/07 09:09:30;;;;;;;8.47;7.27;;;;;;;1.63;nan;98749.94;5059218;28;20225;-71
2022/03/07 09:11:57;;;;;;;10.30;7.70;;;;;;;1.59;nan;98753.84;5059564;28;20213;-71
2022/03/07 09:14:23;;;;;;;7.67;6.60;;;;;;;1.59;nan;98756.47;5059051;28;20205;-71
2022/03/07 09:16:49;;;;;;;9.67;7.73;;;;;;;1.81;nan;98752.63;5059200;28;20222;-71
2022/03/07 09:19:16;;;;;;;9.80;7.93;;;;;;;1.99;nan;98754.28;5059390;28;20229;-71
2022/03/07 09:21:42;;;;;;;10.47;8.47;;;;;;;2.18;nan;98756.78;5059203;28;20192;-71
2022/03/07 09:24:09;;;;;;;10.23;8.27;;;;;;;2.24;nan;98758.81;5059151;28;20200;-71
2022/03/07 09:26:35;;;;;;;9.27;7.53;;;;;;;2.21;nan;98756.47;5058616;28;20619;-71
2022/03/07 09:29:01;;;;;;;8.77;7.87;;;;;;;2.13;nan;98758.22;5059018;28;20221;-71
2022/03/07 09:31:28;;;;;;;10.27;8.87;;;;;;;2.28;nan;98751.44;5059150;28;20273;-73
2022/03/07 09:33:54;;;;;;;10.13;8.27;;;;;;;2.75;nan;98763.34;5058604;28;20196;-73
2022/03/07 09:36:21;;;;;;;9.80;7.63;;;;;;;2.71;nan;98751.50;5058780;28;20236;-72
2022/03/07 09:38:50;;;;;;;9.77;8.03;;;;;;;2.76;nan;98762.38;5058547;28;20225;-74
2022/03/07 09:41:19;;;;;;;8.80;7.27;;;;;;;2.66;nan;98757.19;5058615;28;20206;-73
2022/03/07 09:43:46;;;;;;;9.83;8.03;;;;;;;2.57;nan;98768.59;5059256;28;20197;-72
2022/03/07 09:46:14;;;;;;;10.90;8.33;;;;;;;2.37;nan;98766.28;5058230;28;20215;-72
2022/03/07 09:48:41;;;;;;;10.17;7.50;;;;;;;2.54;nan;98760.22;5058516;28;20240;-73
2022/03/07 09:51:08;;;;;;;11.20;8.77;;;;;;;2.42;nan;98769.28;5058626;28;20193;-73
2022/03/07 09:53:34;;;;;;;10.60;8.43;;;;;;;2.45;nan;98767.22;5058505;28;20194;-73
2022/03/07 09:56:01;;;;;;;9.73;8.33;;;;;;;2.58;nan;98769.44;5058269;28;20255;-72
2022/03/07 09:58:27;;;;;;;10.33;8.77;;;;;;;2.09;nan;98767.34;5058415;28;20229;-72
2022/03/07 10:01:04;;;;;;;8.67;7.70;;;;;;;2.45;nan;98763.75;5058153;28;20213;-72
2022/03/07 10:03:30;;;;;;;10.33;8.43;;;;;;;2.48;nan;98764.25;5058150;28;20569;-71
2022/03/07 10:05:57;;;;;;;9.77;8.77;;;;;;;2.44;nan;98768.16;5058061;28;20189;-72
2022/03/07 10:08:26;;;;;;;8.87;7.97;;;;;;;2.57;nan;98765.97;5058083;28;20229;-72
2022/03/07 10:10:53;;;;;;;9.53;8.53;;;;;;;2.31;nan;98765.09;5058119;28;20200;-71
2022/03/07 10:13:22;;;;;;;10.30;8.13;;;;;;;2.35;nan;98768.25;5058075;28;20252;-72
2022/03/07 10:16:05;;;;;;;9.80;8.03;;;;;;;2.30;nan;98773.13;5057955;28;20245;-72
2022/03/07 10:18:32;;;;;;;8.90;7.37;;;;;;;2.35;nan;98774.31;5057732;28;20543;-71
2022/03/07 10:21:03;;;;;;;9.90;8.33;;;;;;;2.27;nan;98770.81;5057642;28;20272;-72
2022/03/07 10:23:30;;;;;;;8.77;7.83;;;;;;;2.15;nan;98777.22;5057499;28;20493;-71
2022/03/07 10:26:07;;;;;;;9.27;7.63;;;;;;;2.51;nan;98778.88;5057642;28;20186;-71
2022/03/07 10:28:37;;;;;;;9.37;8.47;;;;;;;2.35;nan;98782.19;5057652;28;20228;-73
2022/03/07 10:31:17;;;;;;;8.93;8.03;;;;;;;2.75;nan;98779.09;5057421;28;20585;-72
2022/03/07 10:33:45;;;;;;;8.63;7.73;;;;;;;2.63;nan;98772.44;5057322;28;20516;-72
2022/03/07 10:36:12;;;;;;;8.40;7.50;;;;;;;2.80;nan;98771.59;5057595;28;20209;-71
2022/03/07 10:38:39;;;;;;;8.53;7.73;;;;;;;2.88;nan;98771.63;5057253;28;20295;-71
2022/03/07 10:41:05;;;;;;;9.60;7.87;;;;;;;2.86;nan;98771.81;5057587;28;20185;-71
2022/03/07 10:43:32;;;;;;;9.23;8.23;;;;;;;3.40;nan;98776.75;5057102;28;20473;-72
2022/03/07 10:46:01;;;;;;;8.30;7.50;;;;;;;3.40;nan;98768.03;5057139;28;20591;-73
2022/03/07 10:48:30;;;;;;;8.73;7.80;;;;;;;3.22;nan;98767.28;5056951;28;20237;-72
2022/03/07 10:50:59;;;;;;;8.60;7.53;;;;;;;3.27;nan;98765.00;5057424;28;20204;-71
2022/03/07 10:53:26;;;;;;;9.63;8.37;;;;;;;3.64;nan;98755.81;5057565;28;20197;-72
2022/03/07 10:55:58;;;;;;;8.37;7.43;;;;;;;3.72;nan;98760.28;5056879;28;20303;-71
2022/03/07 10:58:27;;;;;;;8.67;7.77;;;;;;;3.54;nan;98755.13;5056871;28;20225;-72
2022/03/07 11:00:59;;;;;;;8.53;7.73;;;;;;;3.59;nan;98757.25;5056889;28;20216;-72
2022/03/07 11:03:31;;;;;;;9.23;7.70;;;;;;;3.75;nan;98759.97;5057078;28;20209;-71
2022/03/07 11:05:59;;;;;;;12.00;8.10;;;;;;;3.23;nan;98753.16;5056572;28;20578;-73
2022/03/07 11:08:26;;;;;;;11.90;7.93;;;;;;;3.55;nan;98753.31;5056706;28;20221;-72
2022/03/07 11:10:56;;;;;;;9.03;7.97;;;;;;;3.03;nan;98756.97;5056603;28;20217;-73
2022/03/07 11:13:29;;;;;;;9.03;7.73;;;;;;;3.05;nan;98752.38;5056364;28;20225;-73
2022/03/07 11:15:58;;;;;;;8.67;7.77;;;;;;;2.75;nan;98748.41;5056965;28;20216;-73
2022/03/07 11:18:26;;;;;;;9.23;7.47;;;;;;;2.79;nan;98752.38;5056931;28;20277;-73
2022/03/07 11:20:54;;;;;;;9.83;8.07;;;;;;;2.79;nan;98754.16;5056919;28;20588;-73
2022/03/07 11:23:21;;;;;;;9.53;8.30;;;;;;;2.83;nan;98755.50;5057009;28;20194;-74
2022/03/07 11:25:54;;;;;;;10.07;8.27;;;;;;;2.88;nan;98745.38;5056722;28;20201;-73
2022/03/07 11:28:27;;;;;;;10.43;7.93;;;;;;;3.22;nan;98733.94;5055587;28;20225;-72
2022/03/07 11:30:54;;;;;;;9.37;7.87;;;;;;;3.55;nan;98727.00;5056827;28;20189;-72
2022/03/07 11:33:27;;;;;;;9.03;8.03;;;;;;;4.09;nan;98723.88;5056797;28;20197;-72
2022/03/07 11:35:55;;;;;;;8.73;7.83;;;;;;;3.99;nan;98723.22;5056040;28;20644;-73
2022/03/07 11:38:24;;;;;;;10.73;7.50;;;;;;;4.30;nan;98719.78;5056290;28;20221;-73
2022/03/07 11:41:11;;;;;;;8.63;7.27;;;;;;;4.54;nan;98725.09;5056212;28;20577;-73
2022/03/07 11:43:53;;;;;;;8.33;7.63;;;;;;;4.68;nan;98731.47;5056285;28;20483;-73
2022/03/07 11:46:27;;;;;;;8.17;7.20;;;;;;;4.72;nan;98724.91;5056314;28;20192;-73
2022/03/07 11:48:53;;;;;;;8.63;7.73;;;;;;;4.76;nan;98720.94;5056232;28;20511;-73
2022/03/07 11:51:22;;;;;;;8.97;8.07;;;;;;;5.18;nan;98719.72;5056320;28;20192;-72
2022/03/07 11:53:50;;;;;;;8.73;7.87;;;;;;;4.63;nan;98732.00;5056026;28;20616;-73